sensor_id;sensor_type;location;lat;lon;timestamp;pressure;altitude;pressure_sealevel;temperature;humidity
46710;BME280;32442;51.514;-0.178;2022-07-06T00:00:45;102530.03;;;22.01;49.69
46710;BME280;32442;51.514;-0.178;2022-07-06T00:03:12;102521.56;;;22.01;49.97
46710;BME280;32442;51.514;-0.178;2022-07-06T00:05:40;102518.19;;;21.99;49.81
46710;BME280;32442;51.514;-0.178;2022-07-06T00:08:07;102515.09;;;22.00;49.90
46710;BME280;32442;51.514;-0.178;2022-07-06T00:10:33;102520.72;;;22.00;50.05
46710;BME280;32442;51.514;-0.178;2022-07-06T00:13:02;102517.06;;;22.00;50.02
46710;BME280;32442;51.514;-0.178;2022-07-06T00:15:29;102509.47;;;22.00;50.33
46710;BME280;32442;51.514;-0.178;2022-07-06T00:17:57;102518.19;;;22.04;50.36
46710;BME280;32442;51.514;-0.178;2022-07-06T00:20:23;102516.78;;;22.01;50.43
46710;BME280;32442;51.514;-0.178;2022-07-06T00:22:50;102530.88;;;22.01;50.43
46710;BME280;32442;51.514;-0.178;2022-07-06T00:25:17;102521.84;;;21.99;50.11
46710;BME280;32442;51.514;-0.178;2022-07-06T00:27:44;102516.22;;;21.99;50.08
46710;BME280;32442;51.514;-0.178;2022-07-06T00:30:11;102511.75;;;21.98;50.16
46710;BME280;32442;51.514;-0.178;2022-07-06T00:32:37;102520.19;;;21.98;50.15
46710;BME280;32442;51.514;-0.178;2022-07-06T00:35:04;102526.63;;;21.99;50.67
46710;BME280;32442;51.514;-0.178;2022-07-06T00:37:31;102521.00;;;21.99;50.78
46710;BME280;32442;51.514;-0.178;2022-07-06T00:39:58;102514.56;;;21.98;50.51
46710;BME280;32442;51.514;-0.178;2022-07-06T00:42:25;102510.59;;;21.99;50.47
46710;BME280;32442;51.514;-0.178;2022-07-06T00:44:51;102508.63;;;22.00;50.36
46710;BME280;32442;51.514;-0.178;2022-07-06T00:47:18;102516.22;;;21.99;50.73
46710;BME280;32442;51.514;-0.178;2022-07-06T00:49:45;102513.69;;;21.98;50.44
46710;BME280;32442;51.514;-0.178;2022-07-06T00:52:30;102500.75;;;21.97;50.46
46710;BME280;32442;51.514;-0.178;2022-07-06T00:54:57;102503.84;;;22.00;50.70
46710;BME280;32442;51.514;-0.178;2022-07-06T00:57:24;102505.25;;;22.03;50.64
46710;BME280;32442;51.514;-0.178;2022-07-06T00:59:51;102510.03;;;22.02;50.63
46710;BME280;32442;51.514;-0.178;2022-07-06T01:02:18;102506.38;;;22.02;51.21
46710;BME280;32442;51.514;-0.178;2022-07-06T01:04:44;102518.50;;;22.02;50.73
46710;BME280;32442;51.514;-0.178;2022-07-06T01:07:11;102513.13;;;22.01;50.83
46710;BME280;32442;51.514;-0.178;2022-07-06T01:09:38;102515.69;;;22.02;50.69
46710;BME280;32442;51.514;-0.178;2022-07-06T01:12:05;102509.22;;;22.07;50.72
46710;BME280;32442;51.514;-0.178;2022-07-06T01:14:32;102513.13;;;22.06;50.91
46710;BME280;32442;51.514;-0.178;2022-07-06T01:17:02;102515.38;;;22.04;51.14
46710;BME280;32442;51.514;-0.178;2022-07-06T01:19:36;102515.38;;;22.04;50.93
46710;BME280;32442;51.514;-0.178;2022-07-06T01:22:03;102522.13;;;22.08;51.10
46710;BME280;32442;51.514;-0.178;2022-07-06T01:24:30;102516.81;;;22.11;51.38
46710;BME280;32442;51.514;-0.178;2022-07-06T01:26:57;102511.16;;;22.06;50.63
46710;BME280;32442;51.514;-0.178;2022-07-06T01:29:23;102522.69;;;22.05;50.85
46710;BME280;32442;51.514;-0.178;2022-07-06T01:31:50;102524.13;;;22.07;51.42
46710;BME280;32442;51.514;-0.178;2022-07-06T01:34:17;102520.16;;;22.03;51.25
46710;BME280;32442;51.514;-0.178;2022-07-06T01:36:44;102518.19;;;22.04;51.32
46710;BME280;32442;51.514;-0.178;2022-07-06T01:39:11;102523.28;;;22.07;51.73
46710;BME280;32442;51.514;-0.178;2022-07-06T01:41:38;102520.75;;;22.10;51.56
46710;BME280;32442;51.514;-0.178;2022-07-06T01:44:04;102525.25;;;22.11;51.31
46710;BME280;32442;51.514;-0.178;2022-07-06T01:46:31;102524.09;;;22.12;51.61
46710;BME280;32442;51.514;-0.178;2022-07-06T01:48:58;102519.63;;;22.06;51.68
46710;BME280;32442;51.514;-0.178;2022-07-06T01:51:25;102527.47;;;22.04;51.60
46710;BME280;32442;51.514;-0.178;2022-07-06T01:53:52;102533.13;;;22.04;51.36
46710;BME280;32442;51.514;-0.178;2022-07-06T01:56:19;102530.56;;;22.13;51.50
46710;BME280;32442;51.514;-0.178;2022-07-06T01:58:46;102531.72;;;22.12;51.45
46710;BME280;32442;51.514;-0.178;2022-07-06T02:01:14;102525.25;;;22.06;51.14
46710;BME280;32442;51.514;-0.178;2022-07-06T02:03:41;102529.44;;;22.04;51.26
46710;BME280;32442;51.514;-0.178;2022-07-06T02:06:08;102539.59;;;22.05;51.31
46710;BME280;32442;51.514;-0.178;2022-07-06T02:08:35;102532.84;;;22.06;51.18
46710;BME280;32442;51.514;-0.178;2022-07-06T02:11:02;102523.81;;;22.04;51.59
46710;BME280;32442;51.514;-0.178;2022-07-06T02:13:29;102533.41;;;22.03;51.62
46710;BME280;32442;51.514;-0.178;2022-07-06T02:15:56;102533.41;;;22.03;51.61
46710;BME280;32442;51.514;-0.178;2022-07-06T02:18:22;102533.13;;;22.04;51.81
46710;BME280;32442;51.514;-0.178;2022-07-06T02:20:49;102532.56;;;22.02;51.33
46710;BME280;32442;51.514;-0.178;2022-07-06T02:23:16;102528.91;;;22.02;51.46
46710;BME280;32442;51.514;-0.178;2022-07-06T02:25:43;102527.78;;;22.03;51.65
46710;BME280;32442;51.514;-0.178;2022-07-06T02:28:10;102529.75;;;22.02;51.87
46710;BME280;32442;51.514;-0.178;2022-07-06T02:30:36;102532.25;;;22.04;51.68
46710;BME280;32442;51.514;-0.178;2022-07-06T02:33:03;102536.78;;;22.05;51.96
46710;BME280;32442;51.514;-0.178;2022-07-06T02:35:30;102530.56;;;22.08;51.88
46710;BME280;32442;51.514;-0.178;2022-07-06T02:37:56;102526.09;;;22.07;51.64
46710;BME280;32442;51.514;-0.178;2022-07-06T02:40:23;102524.94;;;22.08;51.49
46710;BME280;32442;51.514;-0.178;2022-07-06T02:42:49;102530.56;;;22.08;51.92
46710;BME280;32442;51.514;-0.178;2022-07-06T02:45:16;102533.13;;;22.04;51.67
46710;BME280;32442;51.514;-0.178;2022-07-06T02:47:43;102531.72;;;22.02;51.33
46710;BME280;32442;51.514;-0.178;2022-07-06T02:50:10;102529.75;;;22.07;52.10
46710;BME280;32442;51.514;-0.178;2022-07-06T02:52:36;102531.16;;;22.05;51.68
46710;BME280;32442;51.514;-0.178;2022-07-06T02:55:06;102532.00;;;22.05;52.06
46710;BME280;32442;51.514;-0.178;2022-07-06T02:57:33;102532.00;;;22.10;51.45
46710;BME280;32442;51.514;-0.178;2022-07-06T03:00:00;102523.56;;;22.05;51.23
46710;BME280;32442;51.514;-0.178;2022-07-06T03:02:26;102517.34;;;22.08;51.42
46710;BME280;32442;51.514;-0.178;2022-07-06T03:04:53;102534.81;;;22.05;51.74
46710;BME280;32442;51.514;-0.178;2022-07-06T03:07:20;102542.69;;;22.08;51.63
46710;BME280;32442;51.514;-0.178;2022-07-06T03:09:46;102541.56;;;22.09;51.41
46710;BME280;32442;51.514;-0.178;2022-07-06T03:12:13;102536.22;;;22.13;51.09
46710;BME280;32442;51.514;-0.178;2022-07-06T03:14:40;102527.75;;;22.13;51.21
46710;BME280;32442;51.514;-0.178;2022-07-06T03:17:06;102530.03;;;22.11;51.31
46710;BME280;32442;51.514;-0.178;2022-07-06T03:19:33;102522.72;;;22.10;51.55
46710;BME280;32442;51.514;-0.178;2022-07-06T03:22:00;102523.28;;;22.07;51.14
46710;BME280;32442;51.514;-0.178;2022-07-06T03:24:27;102524.41;;;22.06;51.47
46710;BME280;32442;51.514;-0.178;2022-07-06T03:26:54;102512.56;;;22.04;51.37
46710;BME280;32442;51.514;-0.178;2022-07-06T03:29:20;102516.81;;;22.06;51.72
46710;BME280;32442;51.514;-0.178;2022-07-06T03:31:48;102511.72;;;22.03;51.62
46710;BME280;32442;51.514;-0.178;2022-07-06T03:34:15;102509.19;;;22.02;51.73
46710;BME280;32442;51.514;-0.178;2022-07-06T03:36:41;102519.88;;;22.00;51.63
46710;BME280;32442;51.514;-0.178;2022-07-06T03:39:08;102523.53;;;22.00;51.95
46710;BME280;32442;51.514;-0.178;2022-07-06T03:41:35;102524.13;;;21.97;51.94
46710;BME280;32442;51.514;-0.178;2022-07-06T03:44:01;102528.31;;;22.00;52.24
46710;BME280;32442;51.514;-0.178;2022-07-06T03:46:28;102530.88;;;22.01;52.06
46710;BME280;32442;51.514;-0.178;2022-07-06T03:48:55;102536.50;;;22.01;52.44
46710;BME280;32442;51.514;-0.178;2022-07-06T03:51:21;102537.63;;;22.05;52.41
46710;BME280;32442;51.514;-0.178;2022-07-06T03:53:48;102536.22;;;22.03;52.19
46710;BME280;32442;51.514;-0.178;2022-07-06T03:56:15;102534.53;;;22.02;52.44
46710;BME280;32442;51.514;-0.178;2022-07-06T03:58:59;102535.06;;;21.99;51.85
46710;BME280;32442;51.514;-0.178;2022-07-06T04:01:27;102519.88;;;22.00;52.30
46710;BME280;32442;51.514;-0.178;2022-07-06T04:03:54;102521.00;;;22.04;52.24
46710;BME280;32442;51.514;-0.178;2022-07-06T04:06:20;102517.34;;;22.03;51.77
46710;BME280;32442;51.514;-0.178;2022-07-06T04:08:47;102521.84;;;22.04;52.25
46710;BME280;32442;51.514;-0.178;2022-07-06T04:11:14;102517.66;;;22.07;52.10
46710;BME280;32442;51.514;-0.178;2022-07-06T04:13:40;102514.84;;;22.07;52.40
46710;BME280;32442;51.514;-0.178;2022-07-06T04:16:07;102519.88;;;22.10;52.48
46710;BME280;32442;51.514;-0.178;2022-07-06T04:18:34;102515.09;;;22.05;52.21
46710;BME280;32442;51.514;-0.178;2022-07-06T04:21:01;102517.06;;;22.05;52.42
46710;BME280;32442;51.514;-0.178;2022-07-06T04:23:28;102517.66;;;22.07;52.41
46710;BME280;32442;51.514;-0.178;2022-07-06T04:25:55;102512.03;;;22.07;52.38
46710;BME280;32442;51.514;-0.178;2022-07-06T04:28:22;102524.97;;;22.03;52.21
46710;BME280;32442;51.514;-0.178;2022-07-06T04:30:50;102525.50;;;22.05;52.19
46710;BME280;32442;51.514;-0.178;2022-07-06T04:33:16;102524.13;;;22.02;52.10
46710;BME280;32442;51.514;-0.178;2022-07-06T04:35:43;102522.16;;;22.03;52.39
46710;BME280;32442;51.514;-0.178;2022-07-06T04:38:10;102518.50;;;22.02;52.58
46710;BME280;32442;51.514;-0.178;2022-07-06T04:40:36;102518.75;;;22.01;52.29
46710;BME280;32442;51.514;-0.178;2022-07-06T04:43:03;102515.09;;;22.00;52.10
46710;BME280;32442;51.514;-0.178;2022-07-06T04:45:30;102516.22;;;21.99;52.32
46710;BME280;32442;51.514;-0.178;2022-07-06T04:47:56;102525.81;;;21.98;52.57
46710;BME280;32442;51.514;-0.178;2022-07-06T04:50:23;102523.00;;;21.98;52.35
46710;BME280;32442;51.514;-0.178;2022-07-06T04:52:50;102519.59;;;21.96;52.20
46710;BME280;32442;51.514;-0.178;2022-07-06T04:55:16;102516.50;;;21.98;52.25
46710;BME280;32442;51.514;-0.178;2022-07-06T04:57:43;102515.66;;;21.97;52.47
46710;BME280;32442;51.514;-0.178;2022-07-06T05:00:10;102519.59;;;21.96;52.43
46710;BME280;32442;51.514;-0.178;2022-07-06T05:02:37;102516.50;;;21.98;52.57
46710;BME280;32442;51.514;-0.178;2022-07-06T05:05:04;102508.91;;;21.98;52.55
46710;BME280;32442;51.514;-0.178;2022-07-06T05:07:30;102519.59;;;22.01;52.29
46710;BME280;32442;51.514;-0.178;2022-07-06T05:10:00;102526.63;;;21.99;52.40
46710;BME280;32442;51.514;-0.178;2022-07-06T05:12:26;102526.06;;;21.97;52.34
46710;BME280;32442;51.514;-0.178;2022-07-06T05:14:53;102527.19;;;21.96;52.57
46710;BME280;32442;51.514;-0.178;2022-07-06T05:17:20;102540.41;;;21.95;52.70
46710;BME280;32442;51.514;-0.178;2022-07-06T05:19:54;102533.66;;;21.96;52.57
46710;BME280;32442;51.514;-0.178;2022-07-06T05:22:21;102537.06;;;21.98;53.00
46710;BME280;32442;51.514;-0.178;2022-07-06T05:24:47;102544.94;;;21.96;53.12
46710;BME280;32442;51.514;-0.178;2022-07-06T05:27:14;102547.47;;;21.98;53.22
46710;BME280;32442;51.514;-0.178;2022-07-06T05:29:40;102548.31;;;21.98;53.26
46710;BME280;32442;51.514;-0.178;2022-07-06T05:32:07;102553.09;;;21.98;53.08
46710;BME280;32442;51.514;-0.178;2022-07-06T05:34:34;102541.84;;;21.98;53.06
46710;BME280;32442;51.514;-0.178;2022-07-06T05:37:02;102550.28;;;21.98;53.63
46710;BME280;32442;51.514;-0.178;2022-07-06T05:39:29;102558.16;;;22.01;53.72
46710;BME280;32442;51.514;-0.178;2022-07-06T05:41:57;102558.16;;;22.01;53.44
46710;BME280;32442;51.514;-0.178;2022-07-06T05:44:24;102551.97;;;22.04;53.18
46710;BME280;32442;51.514;-0.178;2022-07-06T05:46:51;102545.50;;;21.98;53.39
46710;BME280;32442;51.514;-0.178;2022-07-06T05:49:17;102546.91;;;21.96;53.75
46710;BME280;32442;51.514;-0.178;2022-07-06T05:52:03;102543.22;;;21.95;53.73
46710;BME280;32442;51.514;-0.178;2022-07-06T05:54:29;102535.91;;;21.94;53.17
46710;BME280;32442;51.514;-0.178;2022-07-06T05:56:56;102520.16;;;21.93;53.48
46710;BME280;32442;51.514;-0.178;2022-07-06T05:59:23;102521.25;;;21.92;53.70
46710;BME280;32442;51.514;-0.178;2022-07-06T06:01:50;102521.03;;;21.94;53.74
46710;BME280;32442;51.514;-0.178;2022-07-06T06:04:16;102524.94;;;21.93;53.55
46710;BME280;32442;51.514;-0.178;2022-07-06T06:06:51;102524.66;;;21.94;53.77
46710;BME280;32442;51.514;-0.178;2022-07-06T06:09:25;102540.16;;;21.97;53.85
46710;BME280;32442;51.514;-0.178;2022-07-06T06:11:52;102541.53;;;21.94;53.78
46710;BME280;32442;51.514;-0.178;2022-07-06T06:14:19;102530.00;;;21.96;53.67
46710;BME280;32442;51.514;-0.178;2022-07-06T06:16:47;102532.81;;;21.96;53.63
46710;BME280;32442;51.514;-0.178;2022-07-06T06:19:17;102542.97;;;21.97;53.22
46710;BME280;32442;51.514;-0.178;2022-07-06T06:21:44;102543.81;;;21.97;53.82
46710;BME280;32442;51.514;-0.178;2022-07-06T06:24:10;102536.75;;;22.00;53.13
46710;BME280;32442;51.514;-0.178;2022-07-06T06:26:37;102537.59;;;21.95;53.36
46710;BME280;32442;51.514;-0.178;2022-07-06T06:29:04;102534.47;;;21.92;53.45
46710;BME280;32442;51.514;-0.178;2022-07-06T06:31:30;102547.16;;;21.89;53.40
46710;BME280;32442;51.514;-0.178;2022-07-06T06:34:02;102561.22;;;21.89;53.24
46710;BME280;32442;51.514;-0.178;2022-07-06T06:36:29;102556.97;;;21.87;52.87
46710;BME280;32442;51.514;-0.178;2022-07-06T06:38:56;102553.31;;;21.86;52.75
46710;BME280;32442;51.514;-0.178;2022-07-06T06:41:22;102554.72;;;21.84;52.94
46710;BME280;32442;51.514;-0.178;2022-07-06T06:43:49;102551.97;;;21.94;52.53
46710;BME280;32442;51.514;-0.178;2022-07-06T06:46:16;102564.91;;;22.00;52.69
46710;BME280;32442;51.514;-0.178;2022-07-06T06:48:42;102574.50;;;21.94;49.97
46710;BME280;32442;51.514;-0.178;2022-07-06T06:51:09;102555.22;;;21.55;47.10
46710;BME280;32442;51.514;-0.178;2022-07-06T06:53:36;102554.63;;;21.48;46.39
46710;BME280;32442;51.514;-0.178;2022-07-06T06:56:05;102560.50;;;21.42;45.88
46710;BME280;32442;51.514;-0.178;2022-07-06T06:58:32;102562.72;;;21.29;45.90
46710;BME280;32442;51.514;-0.178;2022-07-06T07:01:19;102557.59;;;21.21;46.24
46710;BME280;32442;51.514;-0.178;2022-07-06T07:03:45;102564.53;;;21.09;46.39
46710;BME280;32442;51.514;-0.178;2022-07-06T07:06:12;102564.81;;;21.07;46.76
46710;BME280;32442;51.514;-0.178;2022-07-06T07:08:39;102560.88;;;21.08;46.85
46710;BME280;32442;51.514;-0.178;2022-07-06T07:11:05;102559.69;;;20.99;47.00
46710;BME280;32442;51.514;-0.178;2022-07-06T07:13:32;102563.88;;;20.92;47.38
46710;BME280;32442;51.514;-0.178;2022-07-06T07:15:59;102564.69;;;20.87;47.73
46710;BME280;32442;51.514;-0.178;2022-07-06T07:18:26;102550.66;;;20.87;47.83
46710;BME280;32442;51.514;-0.178;2022-07-06T07:20:53;102561.91;;;20.92;48.09
46710;BME280;32442;51.514;-0.178;2022-07-06T07:23:19;102554.91;;;20.95;48.34
46710;BME280;32442;51.514;-0.178;2022-07-06T07:25:46;102557.47;;;21.01;48.47
46710;BME280;32442;51.514;-0.178;2022-07-06T07:28:13;102548.50;;;21.04;49.02
46710;BME280;32442;51.514;-0.178;2022-07-06T07:30:39;102542.16;;;21.24;49.04
46710;BME280;32442;51.514;-0.178;2022-07-06T07:33:06;102550.03;;;21.27;48.95
46710;BME280;32442;51.514;-0.178;2022-07-06T07:35:33;102554.00;;;21.31;49.37
46710;BME280;32442;51.514;-0.178;2022-07-06T07:38:00;102547.81;;;21.29;48.95
46710;BME280;32442;51.514;-0.178;2022-07-06T07:40:26;102541.66;;;21.37;49.14
46710;BME280;32442;51.514;-0.178;2022-07-06T07:42:53;102542.22;;;21.34;48.88
46710;BME280;32442;51.514;-0.178;2022-07-06T07:45:20;102556.53;;;21.33;49.07
46710;BME280;32442;51.514;-0.178;2022-07-06T07:47:47;102530.97;;;21.34;49.13
46710;BME280;32442;51.514;-0.178;2022-07-06T07:50:13;102532.34;;;21.32;49.65
46710;BME280;32442;51.514;-0.178;2022-07-06T07:52:41;102534.88;;;21.33;49.71
46710;BME280;32442;51.514;-0.178;2022-07-06T07:55:07;102539.41;;;21.34;49.42
46710;BME280;32442;51.514;-0.178;2022-07-06T07:57:54;102535.44;;;21.35;49.65
46710;BME280;32442;51.514;-0.178;2022-07-06T08:00:21;102535.44;;;21.35;49.22
46710;BME280;32442;51.514;-0.178;2022-07-06T08:02:53;102539.09;;;21.36;49.46
46710;BME280;32442;51.514;-0.178;2022-07-06T08:05:21;102533.22;;;21.37;49.56
46710;BME280;32442;51.514;-0.178;2022-07-06T08:07:48;102532.94;;;21.39;49.65
46710;BME280;32442;51.514;-0.178;2022-07-06T08:10:14;102532.66;;;21.40;49.41
46710;BME280;32442;51.514;-0.178;2022-07-06T08:12:41;102532.94;;;21.39;49.67
46710;BME280;32442;51.514;-0.178;2022-07-06T08:15:11;102528.16;;;21.39;49.88
46710;BME280;32442;51.514;-0.178;2022-07-06T08:17:38;102523.09;;;21.41;49.85
46710;BME280;32442;51.514;-0.178;2022-07-06T08:20:06;102520.03;;;21.43;49.77
46710;BME280;32442;51.514;-0.178;2022-07-06T08:22:36;102515.25;;;21.43;49.46
46710;BME280;32442;51.514;-0.178;2022-07-06T08:25:03;102517.75;;;21.45;49.99
46710;BME280;32442;51.514;-0.178;2022-07-06T08:27:30;102515.81;;;21.45;49.63
46710;BME280;32442;51.514;-0.178;2022-07-06T08:29:57;102506.25;;;21.46;49.71
46710;BME280;32442;51.514;-0.178;2022-07-06T08:32:26;102507.09;;;21.47;49.56
46710;BME280;32442;51.514;-0.178;2022-07-06T08:35:13;102514.97;;;21.50;49.65
46710;BME280;32442;51.514;-0.178;2022-07-06T08:37:40;102507.66;;;21.49;49.75
46710;BME280;32442;51.514;-0.178;2022-07-06T08:40:07;102504.56;;;21.50;49.81
46710;BME280;32442;51.514;-0.178;2022-07-06T08:42:34;102498.94;;;21.50;50.06
46710;BME280;32442;51.514;-0.178;2022-07-06T08:45:05;102497.81;;;21.51;49.70
46710;BME280;32442;51.514;-0.178;2022-07-06T08:47:34;102499.78;;;21.51;50.19
46710;BME280;32442;51.514;-0.178;2022-07-06T08:50:02;102496.72;;;21.52;50.38
46710;BME280;32442;51.514;-0.178;2022-07-06T08:52:29;102490.25;;;21.52;49.63
46710;BME280;32442;51.514;-0.178;2022-07-06T08:54:56;102489.94;;;21.53;50.24
46710;BME280;32442;51.514;-0.178;2022-07-06T08:57:24;102496.41;;;21.54;50.21
46710;BME280;32442;51.514;-0.178;2022-07-06T08:59:50;102494.44;;;21.54;49.77
46710;BME280;32442;51.514;-0.178;2022-07-06T09:02:17;102500.66;;;21.56;50.16
46710;BME280;32442;51.514;-0.178;2022-07-06T09:04:44;102493.91;;;21.57;50.05
46710;BME280;32442;51.514;-0.178;2022-07-06T09:07:12;102489.94;;;21.58;50.13
46710;BME280;32442;51.514;-0.178;2022-07-06T09:10:00;102484.06;;;21.60;49.92
46710;BME280;32442;51.514;-0.178;2022-07-06T09:12:27;102500.38;;;21.63;49.97
46710;BME280;32442;51.514;-0.178;2022-07-06T09:14:54;102501.22;;;21.63;49.79
46710;BME280;32442;51.514;-0.178;2022-07-06T09:17:23;102496.19;;;21.65;49.92
46710;BME280;32442;51.514;-0.178;2022-07-06T09:19:51;102493.06;;;21.67;50.03
46710;BME280;32442;51.514;-0.178;2022-07-06T09:22:25;102501.50;;;21.67;49.73
46710;BME280;32442;51.514;-0.178;2022-07-06T09:24:52;102504.91;;;21.69;49.96
46710;BME280;32442;51.514;-0.178;2022-07-06T09:27:18;102504.91;;;21.69;49.72
46710;BME280;32442;51.514;-0.178;2022-07-06T09:29:45;102504.63;;;21.70;49.99
46710;BME280;32442;51.514;-0.178;2022-07-06T09:32:12;102508.28;;;21.71;49.76
46710;BME280;32442;51.514;-0.178;2022-07-06T09:34:44;102501.50;;;21.72;49.96
46710;BME280;32442;51.514;-0.178;2022-07-06T09:37:11;102493.06;;;21.72;49.99
46710;BME280;32442;51.514;-0.178;2022-07-06T09:39:38;102491.41;;;21.71;49.99
46710;BME280;32442;51.514;-0.178;2022-07-06T09:42:05;102497.03;;;21.71;50.16
46710;BME280;32442;51.514;-0.178;2022-07-06T09:44:36;102487.44;;;21.72;49.83
46710;BME280;32442;51.514;-0.178;2022-07-06T09:47:04;102497.31;;;21.74;50.16
46710;BME280;32442;51.514;-0.178;2022-07-06T09:49:31;102491.13;;;21.78;50.09
46710;BME280;32442;51.514;-0.178;2022-07-06T09:51:59;102485.22;;;21.84;49.70
46710;BME280;32442;51.514;-0.178;2022-07-06T09:54:26;102490.88;;;21.84;49.85
46710;BME280;32442;51.514;-0.178;2022-07-06T09:56:53;102487.19;;;21.84;50.15
46710;BME280;32442;51.514;-0.178;2022-07-06T09:59:23;102483.53;;;21.83;49.98
46710;BME280;32442;51.514;-0.178;2022-07-06T10:01:57;102477.63;;;21.85;50.29
46710;BME280;32442;51.514;-0.178;2022-07-06T10:04:25;102482.13;;;21.86;50.13
46710;BME280;32442;51.514;-0.178;2022-07-06T10:06:58;102486.63;;;21.87;50.08
46710;BME280;32442;51.514;-0.178;2022-07-06T10:09:30;102488.03;;;21.84;50.46
46710;BME280;32442;51.514;-0.178;2022-07-06T10:12:00;102492.53;;;21.85;50.36
46710;BME280;32442;51.514;-0.178;2022-07-06T10:14:28;102487.22;;;21.89;50.15
46710;BME280;32442;51.514;-0.178;2022-07-06T10:16:58;102493.69;;;21.99;50.39
46710;BME280;32442;51.514;-0.178;2022-07-06T10:19:32;102485.00;;;22.11;50.46
46710;BME280;32442;51.514;-0.178;2022-07-06T10:21:59;102485.53;;;22.08;51.01
46710;BME280;32442;51.514;-0.178;2022-07-06T10:24:27;102481.06;;;22.12;50.52
46710;BME280;32442;51.514;-0.178;2022-07-06T10:26:54;102478.78;;;22.09;50.67
46710;BME280;32442;51.514;-0.178;2022-07-06T10:29:21;102472.63;;;22.07;50.82
46710;BME280;32442;51.514;-0.178;2022-07-06T10:31:48;102462.47;;;22.11;50.88
46710;BME280;32442;51.514;-0.178;2022-07-06T10:34:15;102459.94;;;22.14;51.16
46710;BME280;32442;51.514;-0.178;2022-07-06T10:36:46;102450.38;;;22.15;51.43
46710;BME280;32442;51.514;-0.178;2022-07-06T10:39:34;102460.50;;;22.16;51.84
46710;BME280;32442;51.514;-0.178;2022-07-06T10:45:05;102452.06;;;22.16;52.48
46710;BME280;32442;51.514;-0.178;2022-07-06T10:47:32;102450.63;;;22.14;52.68
46710;BME280;32442;51.514;-0.178;2022-07-06T10:49:59;102451.47;;;22.14;52.97
46710;BME280;32442;51.514;-0.178;2022-07-06T10:55:33;102445.56;;;22.21;53.03
46710;BME280;32442;51.514;-0.178;2022-07-06T10:58:01;102445.00;;;22.24;52.71
46710;BME280;32442;51.514;-0.178;2022-07-06T11:06:04;102436.53;;;22.29;52.70
46710;BME280;32442;51.514;-0.178;2022-07-06T11:11:22;102443.56;;;22.27;52.77
46710;BME280;32442;51.514;-0.178;2022-07-06T11:16:16;102432.88;;;22.34;52.44
46710;BME280;32442;51.514;-0.178;2022-07-06T11:19:00;102423.31;;;22.35;52.38
46710;BME280;32442;51.514;-0.178;2022-07-06T11:24:10;102432.56;;;22.40;52.55
46710;BME280;32442;51.514;-0.178;2022-07-06T11:26:37;102422.47;;;22.34;52.76
46710;BME280;32442;51.514;-0.178;2022-07-06T11:29:07;102441.59;;;22.32;52.77
46710;BME280;32442;51.514;-0.178;2022-07-06T11:31:35;102430.34;;;22.32;52.54
46710;BME280;32442;51.514;-0.178;2022-07-06T11:34:03;102428.38;;;22.33;52.40
46710;BME280;32442;51.514;-0.178;2022-07-06T11:36:31;102419.34;;;22.31;52.33
46710;BME280;32442;51.514;-0.178;2022-07-06T11:39:03;102420.78;;;22.28;52.56
46710;BME280;32442;51.514;-0.178;2022-07-06T11:41:31;102417.09;;;22.28;52.54
46710;BME280;32442;51.514;-0.178;2022-07-06T11:43:59;102415.72;;;22.25;52.29
46710;BME280;32442;51.514;-0.178;2022-07-06T11:46:26;102414.28;;;22.28;52.33
46710;BME280;32442;51.514;-0.178;2022-07-06T11:48:56;102418.81;;;22.29;52.02
46710;BME280;32442;51.514;-0.178;2022-07-06T11:51:24;102425.56;;;22.28;52.41
46710;BME280;32442;51.514;-0.178;2022-07-06T11:53:52;102427.81;;;22.26;52.05
46710;BME280;32442;51.514;-0.178;2022-07-06T11:56:21;102435.44;;;22.25;52.30
46710;BME280;32442;51.514;-0.178;2022-07-06T11:58:52;102425.28;;;22.24;52.34
46710;BME280;32442;51.514;-0.178;2022-07-06T12:01:20;102423.31;;;22.25;52.08
46710;BME280;32442;51.514;-0.178;2022-07-06T12:03:47;102425.84;;;22.26;51.79
46710;BME280;32442;51.514;-0.178;2022-07-06T12:06:18;102423.31;;;22.25;51.97
46710;BME280;32442;51.514;-0.178;2022-07-06T12:08:46;102423.00;;;22.26;52.02
46710;BME280;32442;51.514;-0.178;2022-07-06T12:11:18;102414.28;;;22.28;51.66
46710;BME280;32442;51.514;-0.178;2022-07-06T12:13:45;102418.81;;;22.29;51.81
46710;BME280;32442;51.514;-0.178;2022-07-06T12:16:12;102412.31;;;22.28;51.75
46710;BME280;32442;51.514;-0.178;2022-07-06T12:18:39;102413.16;;;22.29;51.54
46710;BME280;32442;51.514;-0.178;2022-07-06T12:21:07;102412.59;;;22.27;51.50
46710;BME280;32442;51.514;-0.178;2022-07-06T12:23:40;102412.59;;;22.27;51.66
46710;BME280;32442;51.514;-0.178;2022-07-06T12:26:08;102412.59;;;22.27;51.68
46710;BME280;32442;51.514;-0.178;2022-07-06T12:28:35;102406.69;;;22.28;51.41
46710;BME280;32442;51.514;-0.178;2022-07-06T12:31:02;102407.81;;;22.27;51.55
46710;BME280;32442;51.514;-0.178;2022-07-06T12:33:29;102402.19;;;22.27;51.62
46710;BME280;32442;51.514;-0.178;2022-07-06T12:35:55;102407.81;;;22.27;51.58
46710;BME280;32442;51.514;-0.178;2022-07-06T12:38:23;102407.81;;;22.27;51.77
46710;BME280;32442;51.514;-0.178;2022-07-06T12:40:50;102411.19;;;22.29;51.36
46710;BME280;32442;51.514;-0.178;2022-07-06T12:48:51;102417.38;;;22.26;51.76
46710;BME280;32442;51.514;-0.178;2022-07-06T12:51:19;102413.75;;;22.26;51.80
46710;BME280;32442;51.514;-0.178;2022-07-06T12:53:46;102408.41;;;22.24;51.74
46710;BME280;32442;51.514;-0.178;2022-07-06T12:56:13;102412.06;;;22.25;51.42
46710;BME280;32442;51.514;-0.178;2022-07-06T12:58:53;102411.22;;;22.24;51.89
46710;BME280;32442;51.514;-0.178;2022-07-06T13:01:20;102412.91;;;22.25;51.56
46710;BME280;32442;51.514;-0.178;2022-07-06T13:03:47;102419.66;;;22.24;51.41
46710;BME280;32442;51.514;-0.178;2022-07-06T13:06:32;102412.06;;;22.25;51.42
46710;BME280;32442;51.514;-0.178;2022-07-06T13:08:59;102399.94;;;22.24;51.59